Time;durP1;ratioP1;P1;durP2;ratioP2;P2;SDS_P1;SDS_P2;PMS_P1;PMS_P2;Temp;Humidity;BMP_temperature;BMP_pressure;BME280_temperature;BME280_humidity;BME280_pressure;Samples;Min_cycle;Max_cycle;Signal;HPM_P1;HPM_P2
2023/03/24 00:00:29;;;;;;;;;;;;;;;;;;5036166;28;19913;-44
2023/03/24 00:03:00;;;;;;;;;;;;;;;;;;5044461;28;20367;-45
2023/03/24 00:05:27;;;;;;;;;;;;;;;;;;5032642;28;20393;-49
2023/03/24 00:07:54;;;;;;;;;;;;;;;;;;5050288;28;20023;-47
2023/03/24 00:10:21;;;;;;;;;;;;;;;;;;5031971;28;19935;-47
2023/03/24 00:12:48;;;;;;;;;;;;;;;;;;5029164;28;20370;-46
2023/03/24 00:15:14;;;;;;;;;;;;;;;;;;5032816;28;19998;-45
2023/03/24 00:17:41;;;;;;;;;;;;;;;;;;5033894;28;19917;-50
2023/03/24 00:20:12;;;;;;;;;;;;;;;;;;5033981;28;19909;-44
2023/03/24 00:22:41;;;;;;;;;;;;;;;;;;5035170;28;19974;-45
2023/03/24 00:25:07;;;;;;;;;;;;;;;;;;5034849;28;19955;-46
2023/03/24 00:27:35;;;;;;;;;;;;;;;;;;5035095;28;19913;-48
2023/03/24 00:30:02;;;;;;;;;;;;;;;;;;5035106;28;19913;-48
2023/03/24 00:32:29;;;;;;;;;;;;;;;;;;5029836;28;20007;-46
2023/03/24 00:34:55;;;;;;;;;;;;;;;;;;5024837;28;19914;-46
2023/03/24 00:37:22;;;;;;;;;;;;;;;;;;5032314;28;20012;-47
2023/03/24 00:39:49;;;;;;;;;;;;;;;;;;5033922;28;20012;-47
2023/03/24 00:42:16;;;;;;;;;;;;;;;;;;5032687;28;20014;-46
2023/03/24 00:44:43;;;;;;;;;;;;;;;;;;5033274;28;19913;-47
2023/03/24 00:47:10;;;;;;;;;;;;;;;;;;5031817;28;20035;-48
2023/03/24 00:49:43;;;;;;;;;;;;;;;;;;5026482;28;19917;-46
2023/03/24 00:52:10;;;;;;;;;;;;;;;;;;5027930;28;19948;-46
2023/03/24 00:54:36;;;;;;;;;;;;;;;;;;5030234;28;20367;-50
2023/03/24 00:57:03;;;;;;;;;;;;;;;;;;5030016;28;20375;-48
2023/03/24 00:59:30;;;;;;;;;;;;;;;;;;5032869;28;20442;-45
2023/03/24 01:01:56;;;;;;;;;;;;;;;;;;5030327;28;19988;-44
2023/03/24 01:04:25;;;;;;;;;;;;;;;;;;5031777;28;19956;-44
2023/03/24 01:06:53;;;;;;;;;;;;;;;;;;5030981;28;19998;-46
2023/03/24 01:09:20;;;;;;;;;;;;;;;;;;5029525;28;20539;-43
2023/03/24 01:11:47;;;;;;;;;;;;;;;;;;5038374;28;19921;-45
2023/03/24 01:14:13;;;;;;;;;;;;;;;;;;5047197;28;19958;-45
2023/03/24 01:16:41;;;;;;;;;;;;;;;;;;5047968;28;19948;-45
2023/03/24 01:19:08;;;;;;;;;;;;;;;;;;5050624;28;19924;-46
2023/03/24 01:21:34;;;;;;;;;;;;;;;;;;5049588;28;19918;-45
2023/03/24 01:24:00;;;;;;;;;;;;;;;;;;5052756;28;19915;-45
2023/03/24 01:26:27;;;;;;;;;;;;;;;;;;5051230;28;19966;-43
2023/03/24 01:28:54;;;;;;;;;;;;;;;;;;5052817;28;20382;-49
2023/03/24 01:31:20;;;;;;;;;;;;;;;;;;5052363;28;19908;-44
2023/03/24 01:33:46;;;;;;;;;;;;;;;;;;5044721;28;19917;-41
2023/03/24 01:36:13;;;;;;;;;;;;;;;;;;5038908;28;19963;-42
2023/03/24 01:38:39;;;;;;;;;;;;;;;;;;5048376;28;19970;-43
2023/03/24 01:41:06;;;;;;;;;;;;;;;;;;5053164;28;20407;-47
2023/03/24 01:43:32;;;;;;;;;;;;;;;;;;5053272;28;19913;-46
2023/03/24 01:45:59;;;;;;;;;;;;;;;;;;5050812;28;19908;-47
2023/03/24 01:48:25;;;;;;;;;;;;;;;;;;5053181;28;19920;-45
2023/03/24 01:50:52;;;;;;;;;;;;;;;;;;5053133;28;19909;-42
2023/03/24 01:53:18;;;;;;;;;;;;;;;;;;5052017;28;19913;-42
2023/03/24 01:55:45;;;;;;;;;;;;;;;;;;5051423;28;19913;-44
2023/03/24 01:58:11;;;;;;;;;;;;;;;;;;5052965;28;19916;-44
2023/03/24 02:00:38;;;;;;;;;;;;;;;;;;5053142;28;19994;-43
2023/03/24 02:03:05;;;;;;;;;;;;;;;;;;5044536;28;20007;-42
2023/03/24 02:05:32;;;;;;;;;;;;;;;;;;5043214;28;19909;-43
2023/03/24 02:08:01;;;;;;;;;;;;;;;;;;5042037;28;20047;-45
2023/03/24 02:10:27;;;;;;;;;;;;;;;;;;5047835;28;19917;-43
2023/03/24 02:12:54;;;;;;;;;;;;;;;;;;5040960;28;19930;-44
2023/03/24 02:15:20;;;;;;;;;;;;;;;;;;5041233;28;19920;-42
2023/03/24 02:17:47;;;;;;;;;;;;;;;;;;5040478;28;20097;-44
2023/03/24 02:20:14;;;;;;;;;;;;;;;;;;5037052;28;19917;-44
2023/03/24 02:22:41;;;;;;;;;;;;;;;;;;5038844;28;19912;-44
2023/03/24 02:25:07;;;;;;;;;;;;;;;;;;5013508;28;19915;-43
2023/03/24 02:27:34;;;;;;;;;;;;;;;;;;5013981;28;19999;-43
2023/03/24 02:30:00;;;;;;;;;;;;;;;;;;5031749;28;20000;-43
2023/03/24 02:32:27;;;;;;;;;;;;;;;;;;5031545;28;19913;-42
2023/03/24 02:34:54;;;;;;;;;;;;;;;;;;5031469;28;19921;-43
2023/03/24 02:37:20;;;;;;;;;;;;;;;;;;5039412;28;19909;-42
2023/03/24 02:39:50;;;;;;;;;;;;;;;;;;5041315;28;19912;-42
2023/03/24 02:42:16;;;;;;;;;;;;;;;;;;5042839;28;19959;-42
2023/03/24 02:44:43;;;;;;;;;;;;;;;;;;5040742;28;20303;-42
2023/03/24 02:47:10;;;;;;;;;;;;;;;;;;5040893;28;19913;-44
2023/03/24 02:49:36;;;;;;;;;;;;;;;;;;5042542;28;19958;-42
2023/03/24 02:52:03;;;;;;;;;;;;;;;;;;5040767;28;19913;-42
2023/03/24 02:54:30;;;;;;;;;;;;;;;;;;5041026;28;20435;-42
2023/03/24 02:56:57;;;;;;;;;;;;;;;;;;5042183;28;19915;-45
2023/03/24 02:59:24;;;;;;;;;;;;;;;;;;5041689;28;20003;-42
2023/03/24 03:01:53;;;;;;;;;;;;;;;;;;5040557;28;19952;-42
2023/03/24 03:04:21;;;;;;;;;;;;;;;;;;5042435;28;19913;-42
2023/03/24 03:06:47;;;;;;;;;;;;;;;;;;5035733;28;19913;-42
2023/03/24 03:09:14;;;;;;;;;;;;;;;;;;5042538;28;19912;-42
2023/03/24 03:11:40;;;;;;;;;;;;;;;;;;5039476;28;19975;-42
2023/03/24 03:14:07;;;;;;;;;;;;;;;;;;5051330;28;20333;-44
2023/03/24 03:16:37;;;;;;;;;;;;;;;;;;5050812;28;19923;-42
2023/03/24 03:19:03;;;;;;;;;;;;;;;;;;5051137;28;19970;-42
2023/03/24 03:21:30;;;;;;;;;;;;;;;;;;5051156;28;20468;-42
2023/03/24 03:23:56;;;;;;;;;;;;;;;;;;5051421;28;19908;-42
2023/03/24 03:26:23;;;;;;;;;;;;;;;;;;5050645;28;20031;-42
2023/03/24 03:28:49;;;;;;;;;;;;;;;;;;5051207;28;19909;-43
2023/03/24 03:31:15;;;;;;;;;;;;;;;;;;5051588;28;20448;-43
2023/03/24 03:33:42;;;;;;;;;;;;;;;;;;5051635;28;19913;-41
2023/03/24 03:36:08;;;;;;;;;;;;;;;;;;5043064;28;19916;-41
2023/03/24 03:38:35;;;;;;;;;;;;;;;;;;5031453;28;20361;-45
2023/03/24 03:41:01;;;;;;;;;;;;;;;;;;5031735;28;20314;-45
2023/03/24 03:43:28;;;;;;;;;;;;;;;;;;5031900;28;19967;-41
2023/03/24 03:45:54;;;;;;;;;;;;;;;;;;5031519;28;20420;-42
2023/03/24 03:48:20;;;;;;;;;;;;;;;;;;5032579;28;19940;-41
2023/03/24 03:50:47;;;;;;;;;;;;;;;;;;5035724;28;19999;-44
2023/03/24 03:53:13;;;;;;;;;;;;;;;;;;5046073;28;19912;-42
2023/03/24 03:55:40;;;;;;;;;;;;;;;;;;5055332;28;19959;-42
2023/03/24 03:58:06;;;;;;;;;;;;;;;;;;5055656;28;19921;-42
2023/03/24 04:00:33;;;;;;;;;;;;;;;;;;5055615;28;20015;-44
2023/03/24 04:02:59;;;;;;;;;;;;;;;;;;5055570;28;19966;-41
2023/03/24 04:05:26;;;;;;;;;;;;;;;;;;5055244;28;19948;-44
2023/03/24 04:07:52;;;;;;;;;;;;;;;;;;5055603;28;19909;-42
2023/03/24 04:10:19;;;;;;;;;;;;;;;;;;5055468;28;20286;-42
2023/03/24 04:12:45;;;;;;;;;;;;;;;;;;5055308;28;19927;-42
2023/03/24 04:15:12;;;;;;;;;;;;;;;;;;5054997;28;19920;-43
2023/03/24 04:17:38;;;;;;;;;;;;;;;;;;5055387;28;20020;-44
2023/03/24 04:20:04;;;;;;;;;;;;;;;;;;5055006;28;19909;-42
2023/03/24 04:22:31;;;;;;;;;;;;;;;;;;5055043;28;19916;-43
2023/03/24 04:24:58;;;;;;;;;;;;;;;;;;5054725;28;19935;-43
2023/03/24 04:27:28;;;;;;;;;;;;;;;;;;5054929;28;20490;-41
2023/03/24 04:29:54;;;;;;;;;;;;;;;;;;5054914;28;20370;-42
2023/03/24 04:32:21;;;;;;;;;;;;;;;;;;5055190;28;19947;-44
2023/03/24 04:34:49;;;;;;;;;;;;;;;;;;5054932;28;19919;-44
2023/03/24 04:37:16;;;;;;;;;;;;;;;;;;5054539;28;19972;-42
2023/03/24 04:39:42;;;;;;;;;;;;;;;;;;5052201;28;19978;-41
2023/03/24 04:42:09;;;;;;;;;;;;;;;;;;5054843;28;19991;-44
2023/03/24 04:44:35;;;;;;;;;;;;;;;;;;5054882;28;19994;-42
2023/03/24 04:47:01;;;;;;;;;;;;;;;;;;5054395;28;19913;-42
2023/03/24 04:49:28;;;;;;;;;;;;;;;;;;5054641;28;20336;-43
2023/03/24 04:51:55;;;;;;;;;;;;;;;;;;5054709;28;19958;-42
2023/03/24 04:54:21;;;;;;;;;;;;;;;;;;5054644;28;19912;-43
2023/03/24 04:56:47;;;;;;;;;;;;;;;;;;5054349;28;19909;-46
2023/03/24 04:59:14;;;;;;;;;;;;;;;;;;5054203;28;20003;-43
2023/03/24 05:01:40;;;;;;;;;;;;;;;;;;5053416;28;19908;-43
2023/03/24 05:04:07;;;;;;;;;;;;;;;;;;5054315;28;19952;-43
2023/03/24 05:06:33;;;;;;;;;;;;;;;;;;5053953;28;19924;-41
2023/03/24 05:09:00;;;;;;;;;;;;;;;;;;5054502;28;19975;-43
2023/03/24 05:11:26;;;;;;;;;;;;;;;;;;5053722;28;20324;-44
2023/03/24 05:13:52;;;;;;;;;;;;;;;;;;5054324;28;19913;-44
2023/03/24 05:16:19;;;;;;;;;;;;;;;;;;5053885;28;19909;-44
2023/03/24 05:18:45;;;;;;;;;;;;;;;;;;5054137;28;19987;-43
2023/03/24 05:21:12;;;;;;;;;;;;;;;;;;5054176;28;19908;-43
2023/03/24 05:23:38;;;;;;;;;;;;;;;;;;5053954;28;19927;-44
2023/03/24 05:26:04;;;;;;;;;;;;;;;;;;5033063;28;19920;-44
2023/03/24 05:28:31;;;;;;;;;;;;;;;;;;5034178;28;20282;-42
2023/03/24 05:30:57;;;;;;;;;;;;;;;;;;5033873;28;19928;-42
2023/03/24 05:33:23;;;;;;;;;;;;;;;;;;5034031;28;19917;-44
2023/03/24 05:35:50;;;;;;;;;;;;;;;;;;5033627;28;20370;-42
2023/03/24 05:38:17;;;;;;;;;;;;;;;;;;5033881;28;19917;-42
2023/03/24 05:40:43;;;;;;;;;;;;;;;;;;5033530;28;19913;-44
2023/03/24 05:43:11;;;;;;;;;;;;;;;;;;5033774;28;19963;-42
2023/03/24 05:45:37;;;;;;;;;;;;;;;;;;5033291;28;19916;-43
2023/03/24 05:48:03;;;;;;;;;;;;;;;;;;5033712;28;19932;-43
2023/03/24 05:50:30;;;;;;;;;;;;;;;;;;5033715;28;19909;-42
2023/03/24 05:52:57;;;;;;;;;;;;;;;;;;5033794;28;19909;-43
2023/03/24 05:55:24;;;;;;;;;;;;;;;;;;5033355;28;19913;-43
2023/03/24 05:57:50;;;;;;;;;;;;;;;;;;5033022;28;20282;-42
2023/03/24 06:00:17;;;;;;;;;;;;;;;;;;5033383;28;20499;-42
2023/03/24 06:02:43;;;;;;;;;;;;;;;;;;5044342;28;19919;-43
2023/03/24 06:05:10;;;;;;;;;;;;;;;;;;5053025;28;19916;-41
2023/03/24 06:07:37;;;;;;;;;;;;;;;;;;5053323;28;19943;-42
2023/03/24 06:10:03;;;;;;;;;;;;;;;;;;5050152;28;19921;-41
2023/03/24 06:12:30;;;;;;;;;;;;;;;;;;5015167;28;20353;-41
2023/03/24 06:14:56;;;;;;;;;;;;;;;;;;5033007;28;19978;-42
2023/03/24 06:17:23;;;;;;;;;;;;;;;;;;5032418;28;19909;-42
2023/03/24 06:19:49;;;;;;;;;;;;;;;;;;5033023;28;19909;-43
2023/03/24 06:22:16;;;;;;;;;;;;;;;;;;5033051;28;19909;-43
2023/03/24 06:24:42;;;;;;;;;;;;;;;;;;5033002;28;19935;-43
2023/03/24 06:27:09;;;;;;;;;;;;;;;;;;5032687;28;19916;-43
2023/03/24 06:29:35;;;;;;;;;;;;;;;;;;5015297;28;20286;-44
2023/03/24 06:32:04;;;;;;;;;;;;;;;;;;5015113;28;19913;-42
2023/03/24 06:34:31;;;;;;;;;;;;;;;;;;5032867;28;19909;-43
2023/03/24 06:36:57;;;;;;;;;;;;;;;;;;5032318;28;20027;-43
2023/03/24 06:39:24;;;;;;;;;;;;;;;;;;5032555;28;19921;-45
2023/03/24 06:41:50;;;;;;;;;;;;;;;;;;5032681;28;20366;-42
2023/03/24 06:44:16;;;;;;;;;;;;;;;;;;5032826;28;20263;-43
2023/03/24 06:46:44;;;;;;;;;;;;;;;;;;5032443;28;19948;-44
2023/03/24 06:49:11;;;;;;;;;;;;;;;;;;5032661;28;19905;-43
2023/03/24 06:51:37;;;;;;;;;;;;;;;;;;5032435;28;19909;-42
2023/03/24 06:54:04;;;;;;;;;;;;;;;;;;5032592;28;20438;-43
2023/03/24 06:56:30;;;;;;;;;;;;;;;;;;5037341;28;19908;-46
2023/03/24 06:58:56;;;;;;;;;;;;;;;;;;5052054;28;20340;-43
2023/03/24 07:01:23;;;;;;;;;;;;;;;;;;5052226;28;20014;-42
2023/03/24 07:03:49;;;;;;;;;;;;;;;;;;5052369;28;19962;-46
2023/03/24 07:06:17;;;;;;;;;;;;;;;;;;5051981;28;19910;-46
2023/03/24 07:08:43;;;;;;;;;;;;;;;;;;5052089;28;19923;-44
2023/03/24 07:11:09;;;;;;;;;;;;;;;;;;5051565;28;19925;-47
2023/03/24 07:13:36;;;;;;;;;;;;;;;;;;5051463;28;19919;-44
2023/03/24 07:16:02;;;;;;;;;;;;;;;;;;5051663;28;20290;-43
2023/03/24 07:18:29;;;;;;;;;;;;;;;;;;5052058;28;19924;-43
2023/03/24 07:20:55;;;;;;;;;;;;;;;;;;5051768;28;20007;-45
2023/03/24 07:23:21;;;;;;;;;;;;;;;;;;5033614;28;19905;-42
2023/03/24 07:25:48;;;;;;;;;;;;;;;;;;5051755;28;19908;-45
2023/03/24 07:28:15;;;;;;;;;;;;;;;;;;5051943;28;19951;-42
2023/03/24 07:30:41;;;;;;;;;;;;;;;;;;5051801;28;19970;-43
2023/03/24 07:33:09;;;;;;;;;;;;;;;;;;5051947;28;19992;-44
2023/03/24 07:35:36;;;;;;;;;;;;;;;;;;5051236;28;19912;-42
2023/03/24 07:38:02;;;;;;;;;;;;;;;;;;5051937;28;19971;-42
2023/03/24 07:40:29;;;;;;;;;;;;;;;;;;5051702;28;19909;-43
2023/03/24 07:42:55;;;;;;;;;;;;;;;;;;5049560;28;20282;-43
2023/03/24 07:45:22;;;;;;;;;;;;;;;;;;5051504;28;19913;-46
2023/03/24 07:47:48;;;;;;;;;;;;;;;;;;5051788;28;20301;-43
2023/03/24 07:50:17;;;;;;;;;;;;;;;;;;5051528;28;20382;-44
2023/03/24 07:52:43;;;;;;;;;;;;;;;;;;5051649;28;20366;-42
2023/03/24 07:55:14;;;;;;;;;;;;;;;;;;5051291;28;19974;-41
2023/03/24 07:57:40;;;;;;;;;;;;;;;;;;5051460;28;19964;-42
2023/03/24 08:00:19;;;;;;;;;;;;;;;;;;5051607;28;19909;-42
2023/03/24 08:02:46;;;;;;;;;;;;;;;;;;5051351;28;19912;-43
2023/03/24 08:05:13;;;;;;;;;;;;;;;;;;5051312;28;19991;-44
2023/03/24 08:07:41;;;;;;;;;;;;;;;;;;5051394;28;20418;-41
2023/03/24 08:10:07;;;;;;;;;;;;;;;;;;5051512;28;19952;-42
2023/03/24 08:12:34;;;;;;;;;;;;;;;;;;5051297;28;19971;-42
2023/03/24 08:15:00;;;;;;;;;;;;;;;;;;5050921;28;19966;-42
2023/03/24 08:17:27;;;;;;;;;;;;;;;;;;5051420;28;20388;-42
2023/03/24 08:19:53;;;;;;;;;;;;;;;;;;5051286;28;19912;-42
2023/03/24 08:22:20;;;;;;;;;;;;;;;;;;5051247;28;20321;-42
2023/03/24 08:24:46;;;;;;;;;;;;;;;;;;5051300;28;20393;-43
2023/03/24 08:27:12;;;;;;;;;;;;;;;;;;5051169;28;19913;-43
2023/03/24 08:29:39;;;;;;;;;;;;;;;;;;5049623;28;19999;-42
2023/03/24 08:32:05;;;;;;;;;;;;;;;;;;5051213;28;19965;-43
2023/03/24 08:34:31;;;;;;;;;;;;;;;;;;5051311;28;19947;-44
2023/03/24 08:36:58;;;;;;;;;;;;;;;;;;5054191;28;19909;-42
2023/03/24 08:39:24;;;;;;;;;;;;;;;;;;5055007;28;20336;-43
2023/03/24 08:41:50;;;;;;;;;;;;;;;;;;5055054;28;19946;-43
2023/03/24 08:44:17;;;;;;;;;;;;;;;;;;5054914;28;19913;-44
2023/03/24 08:46:43;;;;;;;;;;;;;;;;;;5054465;28;20348;-44
2023/03/24 08:49:10;;;;;;;;;;;;;;;;;;5054779;28;19923;-42
2023/03/24 08:51:36;;;;;;;;;;;;;;;;;;5054693;28;20070;-43
2023/03/24 08:54:03;;;;;;;;;;;;;;;;;;5054968;28;20313;-43
2023/03/24 08:56:30;;;;;;;;;;;;;;;;;;5054193;28;20003;-42
2023/03/24 08:58:56;;;;;;;;;;;;;;;;;;5054370;28;20692;-44
2023/03/24 09:01:23;;;;;;;;;;;;;;;;;;5054436;28;20374;-42
2023/03/24 09:03:49;;;;;;;;;;;;;;;;;;5054626;28;20717;-42
2023/03/24 09:06:16;;;;;;;;;;;;;;;;;;5054043;28;19909;-43
2023/03/24 09:08:42;;;;;;;;;;;;;;;;;;5054199;28;19967;-43
2023/03/24 09:11:08;;;;;;;;;;;;;;;;;;5054131;28;20408;-42
2023/03/24 09:13:35;;;;;;;;;;;;;;;;;;5052965;28;20285;-43
2023/03/24 09:16:01;;;;;;;;;;;;;;;;;;5033904;28;19913;-42
2023/03/24 09:18:27;;;;;;;;;;;;;;;;;;5033637;28;19916;-46
2023/03/24 09:20:54;;;;;;;;;;;;;;;;;;5033517;28;20281;-45
2023/03/24 09:23:20;;;;;;;;;;;;;;;;;;5033753;28;19916;-42
2023/03/24 09:25:46;;;;;;;;;;;;;;;;;;5033152;28;19909;-43
2023/03/24 09:28:14;;;;;;;;;;;;;;;;;;5033466;28;19930;-42
2023/03/24 09:30:41;;;;;;;;;;;;;;;;;;5033270;28;19917;-41
2023/03/24 09:33:07;;;;;;;;;;;;;;;;;;5033281;28;19913;-43
2023/03/24 09:35:34;;;;;;;;;;;;;;;;;;5033389;28;19913;-44
2023/03/24 09:38:00;;;;;;;;;;;;;;;;;;5034021;28;19918;-42
2023/03/24 09:40:27;;;;;;;;;;;;;;;;;;5033768;28;19909;-42
2023/03/24 09:42:53;;;;;;;;;;;;;;;;;;5033868;28;19920;-43
2023/03/24 09:45:20;;;;;;;;;;;;;;;;;;5033251;28;19909;-42
2023/03/24 09:47:46;;;;;;;;;;;;;;;;;;5032605;28;19917;-43
2023/03/24 09:50:12;;;;;;;;;;;;;;;;;;5032900;28;19913;-43
2023/03/24 09:52:39;;;;;;;;;;;;;;;;;;5043740;28;19912;-44
2023/03/24 09:55:09;;;;;;;;;;;;;;;;;;5052524;28;19962;-44
2023/03/24 09:57:36;;;;;;;;;;;;;;;;;;5053551;28;19982;-42
2023/03/24 10:00:02;;;;;;;;;;;;;;;;;;5052184;28;19999;-44
2023/03/24 10:02:30;;;;;;;;;;;;;;;;;;5053361;28;19916;-42
2023/03/24 10:04:56;;;;;;;;;;;;;;;;;;5052936;28;19931;-42
2023/03/24 10:07:24;;;;;;;;;;;;;;;;;;5053305;28;19943;-44
2023/03/24 10:09:50;;;;;;;;;;;;;;;;;;5053157;28;20332;-44
2023/03/24 10:12:16;;;;;;;;;;;;;;;;;;5052450;28;19917;-43
2023/03/24 10:14:43;;;;;;;;;;;;;;;;;;5053210;28;19952;-44
2023/03/24 10:17:09;;;;;;;;;;;;;;;;;;5052908;28;19912;-42
2023/03/24 10:19:36;;;;;;;;;;;;;;;;;;5052711;28;19924;-43
2023/03/24 10:22:02;;;;;;;;;;;;;;;;;;5053139;28;19959;-42
2023/03/24 10:24:28;;;;;;;;;;;;;;;;;;5053206;28;19909;-42
2023/03/24 10:26:55;;;;;;;;;;;;;;;;;;5052591;28;19913;-44
2023/03/24 10:29:21;;;;;;;;;;;;;;;;;;5052771;28;19928;-41
2023/03/24 10:31:48;;;;;;;;;;;;;;;;;;5052985;28;20029;-44
2023/03/24 10:34:14;;;;;;;;;;;;;;;;;;5052853;28;19915;-42
2023/03/24 10:36:42;;;;;;;;;;;;;;;;;;5052362;28;20011;-43
2023/03/24 10:39:08;;;;;;;;;;;;;;;;;;5052531;28;19917;-43
2023/03/24 10:41:35;;;;;;;;;;;;;;;;;;5052527;28;19921;-45
2023/03/24 10:44:01;;;;;;;;;;;;;;;;;;5034729;28;19909;-41
2023/03/24 10:46:27;;;;;;;;;;;;;;;;;;5050801;28;20444;-42
2023/03/24 10:48:54;;;;;;;;;;;;;;;;;;5052528;28;20705;-44
2023/03/24 10:51:20;;;;;;;;;;;;;;;;;;5052421;28;20290;-43
2023/03/24 10:53:47;;;;;;;;;;;;;;;;;;5052531;28;19908;-43
2023/03/24 10:56:14;;;;;;;;;;;;;;;;;;5051895;28;19915;-43
2023/03/24 10:58:41;;;;;;;;;;;;;;;;;;5051414;28;19964;-42
2023/03/24 11:01:07;;;;;;;;;;;;;;;;;;5052252;28;20294;-41
2023/03/24 11:03:34;;;;;;;;;;;;;;;;;;5052049;28;19908;-41
2023/03/24 11:06:00;;;;;;;;;;;;;;;;;;5051795;28;19919;-46
2023/03/24 11:08:27;;;;;;;;;;;;;;;;;;5051797;28;20381;-42
2023/03/24 11:10:54;;;;;;;;;;;;;;;;;;5049245;28;19925;-42
2023/03/24 11:13:20;;;;;;;;;;;;;;;;;;5050516;28;19917;-45
2023/03/24 11:15:47;;;;;;;;;;;;;;;;;;5047090;28;20007;-43
2023/03/24 11:18:15;;;;;;;;;;;;;;;;;;5050703;28;19982;-44
2023/03/24 11:20:41;;;;;;;;;;;;;;;;;;5049784;28;20378;-42
2023/03/24 11:23:07;;;;;;;;;;;;;;;;;;5050406;28;20289;-45
2023/03/24 11:25:34;;;;;;;;;;;;;;;;;;5050226;28;19932;-42
2023/03/24 11:28:00;;;;;;;;;;;;;;;;;;5050181;28;19963;-43
2023/03/24 11:30:27;;;;;;;;;;;;;;;;;;5050280;28;20051;-42
2023/03/24 11:32:54;;;;;;;;;;;;;;;;;;5047440;28;19923;-42
2023/03/24 11:35:20;;;;;;;;;;;;;;;;;;5047798;28;20272;-41
2023/03/24 11:37:46;;;;;;;;;;;;;;;;;;5050463;28;19919;-41
2023/03/24 11:40:14;;;;;;;;;;;;;;;;;;5050496;28;19921;-41
2023/03/24 11:42:40;;;;;;;;;;;;;;;;;;5050593;28;19917;-45
2023/03/24 11:45:07;;;;;;;;;;;;;;;;;;5047843;28;19919;-41
2023/03/24 11:47:33;;;;;;;;;;;;;;;;;;5046724;28;19916;-41
2023/03/24 11:49:59;;;;;;;;;;;;;;;;;;5041922;28;19909;-43
2023/03/24 11:52:26;;;;;;;;;;;;;;;;;;5037510;28;19932;-41
2023/03/24 11:54:53;;;;;;;;;;;;;;;;;;5046245;28;19912;-41
2023/03/24 11:57:19;;;;;;;;;;;;;;;;;;5048355;28;19908;-41
2023/03/24 11:59:45;;;;;;;;;;;;;;;;;;5048025;28;19924;-42
2023/03/24 12:02:12;;;;;;;;;;;;;;;;;;5048309;28;19916;-43
2023/03/24 12:04:38;;;;;;;;;;;;;;;;;;5044086;28;19909;-40
2023/03/24 12:07:06;;;;;;;;;;;;;;;;;;5039905;28;19919;-42
2023/03/24 12:09:33;;;;;;;;;;;;;;;;;;5041168;28;19920;-41
2023/03/24 12:11:59;;;;;;;;;;;;;;;;;;5044801;28;19995;-42
2023/03/24 12:14:25;;;;;;;;;;;;;;;;;;5045681;28;19913;-40
2023/03/24 12:16:53;;;;;;;;;;;;;;;;;;5043378;28;19913;-40
2023/03/24 12:19:19;;;;;;;;;;;;;;;;;;5044492;28;20370;-40
2023/03/24 12:21:46;;;;;;;;;;;;;;;;;;5045661;28;19941;-42
2023/03/24 12:24:12;;;;;;;;;;;;;;;;;;5043559;28;20016;-42
2023/03/24 12:26:39;;;;;;;;;;;;;;;;;;5044737;28;20366;-40
2023/03/24 12:29:05;;;;;;;;;;;;;;;;;;5035007;28;19917;-42
2023/03/24 12:31:33;;;;;;;;;;;;;;;;;;5035268;28;19913;-40
2023/03/24 12:33:59;;;;;;;;;;;;;;;;;;5035045;28;19913;-40
2023/03/24 12:36:30;;;;;;;;;;;;;;;;;;5034444;28;19959;-40
2023/03/24 12:38:56;;;;;;;;;;;;;;;;;;5045071;28;19924;-41
2023/03/24 12:41:23;;;;;;;;;;;;;;;;;;5043317;28;19913;-41
2023/03/24 12:43:49;;;;;;;;;;;;;;;;;;5051921;28;20010;-41
2023/03/24 12:46:15;;;;;;;;;;;;;;;;;;5054499;28;19915;-41
2023/03/24 12:48:42;;;;;;;;;;;;;;;;;;5054896;28;19905;-41
2023/03/24 12:51:08;;;;;;;;;;;;;;;;;;5054734;28;19917;-41
2023/03/24 12:53:35;;;;;;;;;;;;;;;;;;5054315;28;19908;-40
2023/03/24 12:56:02;;;;;;;;;;;;;;;;;;5041690;28;20030;-39
2023/03/24 12:58:28;;;;;;;;;;;;;;;;;;5051608;28;19928;-39
2023/03/24 13:00:55;;;;;;;;;;;;;;;;;;5034239;28;19942;-39
2023/03/24 13:03:21;;;;;;;;;;;;;;;;;;5035228;28;19955;-39
2023/03/24 13:05:47;;;;;;;;;;;;;;;;;;5053975;28;19915;-39
2023/03/24 13:08:15;;;;;;;;;;;;;;;;;;5053748;28;19916;-40
2023/03/24 13:10:41;;;;;;;;;;;;;;;;;;5053812;28;19916;-40
2023/03/24 13:13:08;;;;;;;;;;;;;;;;;;5054246;28;19990;-39
2023/03/24 13:15:34;;;;;;;;;;;;;;;;;;5035752;28;19917;-40
2023/03/24 13:18:03;;;;;;;;;;;;;;;;;;5033569;28;19925;-39
2023/03/24 13:20:29;;;;;;;;;;;;;;;;;;5033463;28;19913;-39
2023/03/24 13:22:55;;;;;;;;;;;;;;;;;;5033867;28;20290;-39
2023/03/24 13:25:22;;;;;;;;;;;;;;;;;;5033695;28;20000;-39
2023/03/24 13:27:48;;;;;;;;;;;;;;;;;;5033657;28;19920;-39
2023/03/24 13:30:15;;;;;;;;;;;;;;;;;;5033862;28;20039;-38
2023/03/24 13:32:41;;;;;;;;;;;;;;;;;;5033830;28;19928;-39
2023/03/24 13:35:08;;;;;;;;;;;;;;;;;;5033358;28;20367;-39
2023/03/24 13:37:36;;;;;;;;;;;;;;;;;;5033568;28;19913;-38
2023/03/24 13:40:03;;;;;;;;;;;;;;;;;;5036123;28;20016;-39
2023/03/24 13:42:30;;;;;;;;;;;;;;;;;;5047749;28;19912;-39
2023/03/24 13:44:58;;;;;;;;;;;;;;;;;;5053083;28;20396;-39
2023/03/24 13:47:25;;;;;;;;;;;;;;;;;;5052999;28;19922;-40
2023/03/24 13:49:51;;;;;;;;;;;;;;;;;;5051873;28;19955;-38
2023/03/24 13:52:18;;;;;;;;;;;;;;;;;;5053569;28;19940;-38
2023/03/24 13:54:44;;;;;;;;;;;;;;;;;;5053389;28;19908;-38
2023/03/24 13:57:11;;;;;;;;;;;;;;;;;;5052707;28;20007;-39
2023/03/24 13:59:37;;;;;;;;;;;;;;;;;;5053155;28;19916;-38
2023/03/24 14:02:04;;;;;;;;;;;;;;;;;;5053204;28;19912;-39
2023/03/24 14:04:30;;;;;;;;;;;;;;;;;;5053309;28;20354;-38
2023/03/24 14:06:57;;;;;;;;;;;;;;;;;;5052314;28;20267;-39
2023/03/24 14:09:24;;;;;;;;;;;;;;;;;;5052949;28;20374;-38
2023/03/24 14:11:50;;;;;;;;;;;;;;;;;;5051547;28;19967;-39
2023/03/24 14:14:17;;;;;;;;;;;;;;;;;;5053412;28;19912;-39
2023/03/24 14:16:44;;;;;;;;;;;;;;;;;;5052077;28;20563;-38
2023/03/24 14:19:10;;;;;;;;;;;;;;;;;;5049497;28;19924;-39
2023/03/24 14:21:40;;;;;;;;;;;;;;;;;;5043319;28;19960;-39
2023/03/24 14:24:07;;;;;;;;;;;;;;;;;;5042461;28;19913;-40
2023/03/24 14:26:33;;;;;;;;;;;;;;;;;;5040331;28;20294;-40
2023/03/24 14:29:00;;;;;;;;;;;;;;;;;;5042436;28;20662;-39
2023/03/24 14:31:27;;;;;;;;;;;;;;;;;;5042454;28;19909;-39
2023/03/24 14:34:00;;;;;;;;;;;;;;;;;;5040718;28;19917;-41
2023/03/24 14:36:29;;;;;;;;;;;;;;;;;;5042430;28;19909;-38
2023/03/24 14:38:55;;;;;;;;;;;;;;;;;;5040569;28;20027;-42
2023/03/24 14:41:23;;;;;;;;;;;;;;;;;;5024079;28;19909;-40
2023/03/24 14:43:49;;;;;;;;;;;;;;;;;;5024795;28;19963;-40
2023/03/24 14:46:16;;;;;;;;;;;;;;;;;;5040613;28;19917;-39
2023/03/24 14:48:42;;;;;;;;;;;;;;;;;;5042143;28;19909;-40
2023/03/24 14:51:09;;;;;;;;;;;;;;;;;;5040014;28;20389;-39
2023/03/24 14:53:35;;;;;;;;;;;;;;;;;;5033877;28;19974;-39
2023/03/24 14:56:02;;;;;;;;;;;;;;;;;;5036523;28;19944;-39
2023/03/24 14:58:29;;;;;;;;;;;;;;;;;;5040207;28;20393;-40
2023/03/24 15:00:55;;;;;;;;;;;;;;;;;;5045041;28;20025;-41
2023/03/24 15:03:22;;;;;;;;;;;;;;;;;;5039634;28;20413;-42
2023/03/24 15:05:49;;;;;;;;;;;;;;;;;;5038906;28;19912;-40
2023/03/24 15:08:17;;;;;;;;;;;;;;;;;;5031493;28;20271;-40
2023/03/24 15:10:43;;;;;;;;;;;;;;;;;;5031041;28;19909;-38
2023/03/24 15:13:10;;;;;;;;;;;;;;;;;;5031640;28;19991;-40
2023/03/24 15:15:36;;;;;;;;;;;;;;;;;;5031420;28;20382;-40
2023/03/24 15:18:03;;;;;;;;;;;;;;;;;;5044752;28;19939;-40
2023/03/24 15:20:29;;;;;;;;;;;;;;;;;;5049623;28;20425;-40
2023/03/24 15:22:56;;;;;;;;;;;;;;;;;;5038557;28;19909;-40
2023/03/24 15:25:23;;;;;;;;;;;;;;;;;;5040654;28;20294;-40
2023/03/24 15:27:50;;;;;;;;;;;;;;;;;;5040852;28;19917;-40
2023/03/24 15:30:17;;;;;;;;;;;;;;;;;;5039776;28;19912;-39
2023/03/24 15:32:48;;;;;;;;;;;;;;;;;;5040791;28;20125;-41
2023/03/24 15:35:14;;;;;;;;;;;;;;;;;;5039923;28;20421;-39
2023/03/24 15:37:46;;;;;;;;;;;;;;;;;;5041646;28;19912;-40
2023/03/24 15:40:14;;;;;;;;;;;;;;;;;;5041932;28;20405;-39
2023/03/24 15:42:40;;;;;;;;;;;;;;;;;;5030443;28;19912;-40
2023/03/24 15:45:07;;;;;;;;;;;;;;;;;;5052253;28;19909;-39
2023/03/24 15:47:34;;;;;;;;;;;;;;;;;;5054103;28;20137;-42
2023/03/24 15:50:02;;;;;;;;;;;;;;;;;;5054526;28;20313;-40
2023/03/24 15:52:29;;;;;;;;;;;;;;;;;;5054879;28;19909;-40
2023/03/24 15:54:56;;;;;;;;;;;;;;;;;;5053526;28;20023;-39
2023/03/24 15:57:23;;;;;;;;;;;;;;;;;;5047536;28;19912;-41
2023/03/24 15:59:49;;;;;;;;;;;;;;;;;;5038015;28;19921;-40
2023/03/24 16:02:16;;;;;;;;;;;;;;;;;;5038193;28;19944;-40
2023/03/24 16:04:43;;;;;;;;;;;;;;;;;;5038141;28;19963;-42
2023/03/24 16:07:09;;;;;;;;;;;;;;;;;;5038192;28;19913;-41
2023/03/24 16:09:39;;;;;;;;;;;;;;;;;;5045602;28;19924;-40
2023/03/24 16:12:06;;;;;;;;;;;;;;;;;;5042387;28;20279;-43
2023/03/24 16:14:34;;;;;;;;;;;;;;;;;;5025866;28;19936;-44
2023/03/24 16:17:01;;;;;;;;;;;;;;;;;;5025977;28;19913;-41
2023/03/24 16:19:28;;;;;;;;;;;;;;;;;;5022236;28;20033;-42
2023/03/24 16:21:55;;;;;;;;;;;;;;;;;;5039670;28;19952;-40
2023/03/24 16:24:21;;;;;;;;;;;;;;;;;;5039898;28;19913;-40
2023/03/24 16:26:49;;;;;;;;;;;;;;;;;;5040217;28;19924;-42
2023/03/24 16:29:15;;;;;;;;;;;;;;;;;;5036631;28;19916;-43
2023/03/24 16:31:42;;;;;;;;;;;;;;;;;;5037009;28;20370;-42
2023/03/24 16:34:09;;;;;;;;;;;;;;;;;;5036419;28;19913;-42
2023/03/24 16:36:36;;;;;;;;;;;;;;;;;;5048128;28;19951;-44
2023/03/24 16:39:04;;;;;;;;;;;;;;;;;;5051298;28;19924;-42
2023/03/24 16:41:30;;;;;;;;;;;;;;;;;;5051588;28;19915;-43